Decoded Metar for KSTC (ST. CLOUD in MN, USA) (IATA:STC) | Meteo·Mobile Aviation Weather
aviador You're here:

KSTC Decoded Metar

ST. CLOUD in MN, USA
Report Time2019-06-18 15:13:00
UTC Time2019-06-18 15:52:12
Flight Rules vfr VFR
Wind320° at 06 kt
W.Decomp.*RWY 31: 6.0 kt HW 0.7 kt RCW
RWY 23: 0.3 kt HW 6.0 kt RCW
Visibility9999 m
Phenomena:N/A
Clouds:Few 024 Hf
Broken 032 Hf
Overcast 070 Hf
Expected CloudBase > 2,400 ft AGL from Temp-Dew spread
Ceiling3,200 ft
Temp18°C (ISA +5)
Dew Point12°C (68% RH)
AAT16.5°C
QNH1016 hPa
Density Alt1,713 ft
Elevation1,030 ft
Report Wrong Elevation
Raw Report
KSTC 181513Z 32006KT 10SM FEW024 BKN032 OVC070 18/12 A2999=

Extra information for KSTC:More info

Metar Taf Metar & Taf Last 4 Metars F.Rules Stats Wind Profile Meteogram Temp Stats Airport Information Weather charts Add Link Nearby VenuesMetar ALERT Operation Metar Decoded Social comments

AIRNAV info for KSTC